createdAt,value
2018-11-22T00:00:36.286Z,42.50
2018-11-22T00:03:06.922Z,42.70
2018-11-22T00:05:37.496Z,42.70
2018-11-22T00:08:08.039Z,42.60
2018-11-22T00:10:38.795Z,42.90
2018-11-22T00:13:06.520Z,42.80
2018-11-22T00:15:37.339Z,42.70
2018-11-22T00:18:05.205Z,42.50
2018-11-22T00:20:32.982Z,42.60
2018-11-22T00:23:00.730Z,42.90
2018-11-22T00:25:31.215Z,42.60
2018-11-22T00:28:02.128Z,42.60
2018-11-22T00:30:32.814Z,42.80
2018-11-22T00:33:00.569Z,42.80
2018-11-22T00:35:28.312Z,42.90
2018-11-22T00:37:56.048Z,43.00
2018-11-22T00:40:25.261Z,43.00
2018-11-22T00:42:53.845Z,42.80
2018-11-22T00:45:28.737Z,42.60
2018-11-22T00:47:56.730Z,43.00
2018-11-22T00:50:27.593Z,42.90
2018-11-22T00:52:58.690Z,42.80
2018-11-22T00:55:29.562Z,43.00
2018-11-22T00:58:00.186Z,43.20
2018-11-22T01:00:29.020Z,43.00
2018-11-22T01:02:56.761Z,43.00
2018-11-22T01:05:25.451Z,43.00
2018-11-22T01:07:53.225Z,43.20
2018-11-22T01:10:28.077Z,43.20
2018-11-22T01:12:56.754Z,43.10
2018-11-22T01:15:24.505Z,43.00
2018-11-22T01:17:52.254Z,42.90
2018-11-22T01:20:21.259Z,43.00
2018-11-22T01:22:49.836Z,42.90
2018-11-22T01:25:18.214Z,42.90
2018-11-22T01:27:48.125Z,42.90
2018-11-22T01:30:17.121Z,42.90
2018-11-22T01:32:49.041Z,42.90
2018-11-22T01:35:22.200Z,42.90
2018-11-22T01:37:49.999Z,43.10
2018-11-22T01:40:22.169Z,43.20
2018-11-22T01:42:49.945Z,42.90
2018-11-22T01:45:19.294Z,43.10
2018-11-22T01:47:50.124Z,42.90
2018-11-22T01:50:18.372Z,43.00
2018-11-22T01:52:48.607Z,43.30
2018-11-22T01:55:18.709Z,43.00
2018-11-22T01:57:49.383Z,42.60
2018-11-22T02:00:22.280Z,42.70
2018-11-22T02:02:50.400Z,42.30
2018-11-22T02:05:19.389Z,42.20
2018-11-22T02:07:50.424Z,42.20
2018-11-22T02:10:19.276Z,42.80
2018-11-22T02:12:49.854Z,42.60
2018-11-22T02:15:21.878Z,42.50
2018-11-22T02:17:52.633Z,42.60
2018-11-22T02:20:21.558Z,42.60
2018-11-22T02:22:49.461Z,42.70
2018-11-22T02:25:25.213Z,42.60
2018-11-22T02:27:53.008Z,42.70
2018-11-22T02:30:22.090Z,42.80
2018-11-22T02:32:51.357Z,42.70
2018-11-22T02:35:22.466Z,42.60
2018-11-22T02:37:50.273Z,42.60
2018-11-22T02:40:21.729Z,42.80
2018-11-22T02:42:50.021Z,42.70
2018-11-22T02:45:22.365Z,43.20
2018-11-22T02:47:50.115Z,43.00
2018-11-22T02:50:19.103Z,42.80
2018-11-22T02:52:50.229Z,42.80
2018-11-22T02:55:20.952Z,42.80
2018-11-22T02:57:51.556Z,42.80
2018-11-22T03:00:23.724Z,42.80
2018-11-22T03:02:51.920Z,43.00
2018-11-22T03:05:19.673Z,42.90
2018-11-22T03:07:47.495Z,42.80
2018-11-22T03:10:17.576Z,43.00
2018-11-22T03:12:48.349Z,42.80
2018-11-22T03:15:18.106Z,43.20
2018-11-22T03:17:47.554Z,43.00
2018-11-22T03:20:15.321Z,43.10
2018-11-22T03:22:43.766Z,43.00
2018-11-22T03:25:12.935Z,42.90
2018-11-22T03:27:41.428Z,43.40
2018-11-22T03:30:10.761Z,43.00
2018-11-22T03:32:38.826Z,43.30
2018-11-22T03:35:06.777Z,43.00
2018-11-22T03:37:34.505Z,43.20
2018-11-22T03:40:02.303Z,43.00
2018-11-22T03:42:32.549Z,43.20
2018-11-22T03:45:00.354Z,43.20
2018-11-22T03:47:28.087Z,43.00
2018-11-22T03:49:55.887Z,43.20
2018-11-22T03:52:23.686Z,43.20
2018-11-22T03:54:54.457Z,43.20
2018-11-22T03:57:22.216Z,43.40
2018-11-22T03:59:49.987Z,43.20
2018-11-22T04:02:17.936Z,42.80
2018-11-22T04:04:48.821Z,42.90
2018-11-22T04:07:19.736Z,42.80
2018-11-22T04:09:50.871Z,42.60
2018-11-22T04:12:18.658Z,42.80
2018-11-22T04:14:49.219Z,42.70
2018-11-22T04:17:22.998Z,42.80
2018-11-22T04:19:50.769Z,42.90
2018-11-22T04:22:18.508Z,42.70
2018-11-22T04:24:49.371Z,42.70
2018-11-22T04:27:22.943Z,42.70
2018-11-22T04:29:53.963Z,42.70
2018-11-22T04:32:21.751Z,42.90
2018-11-22T04:34:49.518Z,42.80
2018-11-22T04:37:17.243Z,42.80
2018-11-22T04:39:47.223Z,42.70
2018-11-22T04:42:15.032Z,42.80
2018-11-22T04:44:48.478Z,43.00
2018-11-22T04:47:19.612Z,42.70
2018-11-22T04:49:50.446Z,43.20
2018-11-22T04:52:18.187Z,43.30
2018-11-22T04:54:48.924Z,43.20
2018-11-22T04:57:19.678Z,43.00
2018-11-22T04:59:50.484Z,43.00
2018-11-22T05:02:18.235Z,43.20
2018-11-22T05:04:48.489Z,43.30
2018-11-22T05:07:19.415Z,43.00
2018-11-22T05:09:47.298Z,43.00
2018-11-22T05:12:17.224Z,43.80
2018-11-22T05:14:47.918Z,43.10
2018-11-22T05:17:20.207Z,43.40
2018-11-22T05:19:47.960Z,43.30
2018-11-22T05:22:18.841Z,43.80
2018-11-22T05:24:49.577Z,43.30
2018-11-22T05:27:20.153Z,43.20
2018-11-22T05:29:52.837Z,43.40
2018-11-22T05:32:20.579Z,43.30
2018-11-22T05:34:48.492Z,43.20
2018-11-22T05:37:17.081Z,43.10
2018-11-22T05:39:45.884Z,43.90
2018-11-22T05:42:12.557Z,43.30
2018-11-22T05:44:40.294Z,43.20
2018-11-22T05:47:08.343Z,43.00
2018-11-22T05:49:36.113Z,42.90
2018-11-22T05:52:03.866Z,42.70
2018-11-22T05:54:31.679Z,42.60
2018-11-22T05:57:02.575Z,42.70
2018-11-22T05:59:30.324Z,42.60
2018-11-22T06:01:58.047Z,42.50
2018-11-22T06:04:28.828Z,42.40
2018-11-22T06:06:56.661Z,42.30
2018-11-22T06:09:27.477Z,42.40
2018-11-22T06:11:55.260Z,42.50
2018-11-22T06:14:26.102Z,42.00
2018-11-22T06:16:53.854Z,42.70
2018-11-22T06:19:21.703Z,42.60
2018-11-22T06:21:49.469Z,42.80
2018-11-22T06:24:17.377Z,42.80
2018-11-22T06:26:48.084Z,42.90
2018-11-22T06:29:18.644Z,42.60
2018-11-22T06:31:49.231Z,43.30
2018-11-22T06:34:20.163Z,42.80
2018-11-22T06:36:51.162Z,42.90
2018-11-22T06:39:21.665Z,42.90
2018-11-22T06:41:52.318Z,42.70
2018-11-22T06:44:22.929Z,42.80
2018-11-22T06:46:53.582Z,42.80
2018-11-22T06:49:24.767Z,42.80
2018-11-22T06:51:55.365Z,42.80
2018-11-22T06:54:26.204Z,42.80
2018-11-22T06:56:54.361Z,43.60
2018-11-22T06:59:22.102Z,42.70
2018-11-22T07:01:52.771Z,42.80
2018-11-22T07:04:23.539Z,42.80
2018-11-22T07:06:51.274Z,42.90
2018-11-22T07:09:19.036Z,42.80
2018-11-22T07:11:50.242Z,43.00
2018-11-22T07:14:17.975Z,42.80
2018-11-22T07:16:45.845Z,42.60
2018-11-22T07:19:13.592Z,42.40
2018-11-22T07:21:41.386Z,42.60
2018-11-22T07:24:09.158Z,42.20
2018-11-22T07:26:36.976Z,42.30
2018-11-22T07:29:04.701Z,42.20
2018-11-22T07:31:32.454Z,42.30
2018-11-22T07:34:02.982Z,42.40
2018-11-22T07:36:33.950Z,42.50
2018-11-22T07:39:04.735Z,42.40
2018-11-22T07:41:32.539Z,42.40
2018-11-22T07:44:00.258Z,42.30
2018-11-22T07:46:31.216Z,42.60
2018-11-22T07:48:59.226Z,42.50
2018-11-22T07:51:30.171Z,42.50
2018-11-22T07:53:58.160Z,42.40
2018-11-22T07:56:25.985Z,42.80
2018-11-22T07:58:53.717Z,42.60
2018-11-22T08:01:21.477Z,42.60
2018-11-22T08:03:49.218Z,42.40
2018-11-22T08:06:19.897Z,42.50
2018-11-22T08:08:47.628Z,42.50
2018-11-22T08:11:18.167Z,42.50
2018-11-22T08:13:47.955Z,42.60
2018-11-22T08:16:18.365Z,42.50
2018-11-22T08:18:49.000Z,42.50
2018-11-22T08:21:21.710Z,42.40
2018-11-22T08:23:49.587Z,42.50
2018-11-22T08:26:20.506Z,42.50
2018-11-22T08:28:48.288Z,42.50
2018-11-22T08:31:18.930Z,42.50
2018-11-22T08:33:48.735Z,42.40
2018-11-22T08:36:18.252Z,42.30
2018-11-22T08:38:51.479Z,42.50
2018-11-22T08:41:22.020Z,42.40
2018-11-22T08:43:49.878Z,42.40
2018-11-22T08:46:17.904Z,42.10
2018-11-22T08:48:46.767Z,42.10
2018-11-22T08:51:16.814Z,41.90
2018-11-22T08:53:42.619Z,41.90
2018-11-22T12:17:47.365Z,42.60
2018-11-22T12:20:16.239Z,42.70
2018-11-22T12:22:46.050Z,42.70
2018-11-22T12:25:16.805Z,42.80
2018-11-22T12:27:46.566Z,42.60
2018-11-22T12:30:16.398Z,42.60
2018-11-22T12:32:49.798Z,42.80
2018-11-22T12:36:23.930Z,42.60
2018-11-22T12:38:52.849Z,42.50
2018-11-22T12:41:20.957Z,42.50
2018-11-22T12:43:48.826Z,42.20
2018-11-22T12:46:17.623Z,42.30
2018-11-22T12:48:46.430Z,42.10
2018-11-22T12:51:16.036Z,42.40
2018-11-22T12:53:45.153Z,42.40
2018-11-22T12:56:13.123Z,42.50
2018-11-22T12:58:41.814Z,42.50
2018-11-22T13:01:10.525Z,42.50
2018-11-22T13:03:39.240Z,42.30
2018-11-22T13:06:07.989Z,43.10
2018-11-22T13:08:35.806Z,42.90
2018-11-22T13:11:03.714Z,42.50
2018-11-22T13:13:32.453Z,42.80
2018-11-22T13:16:01.284Z,42.90
2018-11-22T13:18:29.130Z,42.60
2018-11-22T13:20:57.746Z,42.90
2018-11-22T13:23:26.480Z,42.80
2018-11-22T13:25:55.183Z,42.60
2018-11-22T13:28:23.900Z,42.40
2018-11-22T13:30:52.597Z,42.60
2018-11-22T13:33:20.410Z,42.50
2018-11-22T13:35:48.268Z,42.60
2018-11-22T13:38:16.947Z,42.20
2018-11-22T13:40:45.235Z,42.20
2018-11-22T13:43:13.058Z,42.20
2018-11-22T13:45:40.886Z,42.10
2018-11-22T13:48:08.733Z,42.20
2018-11-22T13:50:41.895Z,42.20
2018-11-22T13:53:06.185Z,42.10
2018-11-22T13:55:34.107Z,42.20
2018-11-22T13:58:01.936Z,42.10
2018-11-22T14:00:31.016Z,42.30
2018-11-22T14:03:04.407Z,42.40
2018-11-22T14:05:32.278Z,42.40
2018-11-22T14:08:00.198Z,42.50
2018-11-22T14:10:27.994Z,42.20
2018-11-22T14:12:55.803Z,42.20
2018-11-22T14:15:25.082Z,42.40
2018-11-22T14:17:54.559Z,42.50
2018-11-22T14:20:24.986Z,42.70
2018-11-22T14:22:52.915Z,42.40
2018-11-22T14:25:20.734Z,42.50
2018-11-22T14:27:49.716Z,42.60
2018-11-22T14:30:18.778Z,42.60
2018-11-22T14:32:48.137Z,42.70
2018-11-22T14:35:19.059Z,42.70
2018-11-22T14:37:47.915Z,42.80
2018-11-22T14:40:22.070Z,42.60
2018-11-22T14:42:50.787Z,42.60
2018-11-22T14:45:18.656Z,43.00
2018-11-22T14:47:49.379Z,43.00
2018-11-22T14:50:21.330Z,42.90
2018-11-22T14:52:53.560Z,42.80
2018-11-22T14:55:21.409Z,43.00
2018-11-22T14:57:50.262Z,43.00
2018-11-22T15:00:19.016Z,43.00
2018-11-22T15:02:48.189Z,43.20
2018-11-22T15:05:17.967Z,43.20
2018-11-22T15:07:46.656Z,43.00
2018-11-22T15:10:16.213Z,43.20
2018-11-22T15:12:45.684Z,43.10
2018-11-22T15:15:16.550Z,43.00
2018-11-22T15:17:46.146Z,43.20
2018-11-22T15:20:16.719Z,43.20
2018-11-22T15:22:46.571Z,43.20
2018-11-22T15:25:16.744Z,43.00
2018-11-22T15:27:46.024Z,43.00
2018-11-22T15:30:16.195Z,43.20
2018-11-22T15:32:45.677Z,42.90
2018-11-22T15:35:16.346Z,42.70
2018-11-22T15:37:44.350Z,42.70
2018-11-22T15:40:13.894Z,42.40
2018-11-22T15:42:42.939Z,42.40
2018-11-22T15:45:14.151Z,42.30
2018-11-22T15:47:43.194Z,42.30
2018-11-22T15:50:13.492Z,42.40
2018-11-22T15:52:41.640Z,42.40
2018-11-22T15:55:10.991Z,43.00
2018-11-22T15:57:40.393Z,42.50
2018-11-22T16:00:10.147Z,42.60
2018-11-22T16:02:38.997Z,42.40
2018-11-22T16:05:07.345Z,42.60
2018-11-22T16:07:35.177Z,42.60
2018-11-22T16:10:04.642Z,42.60
2018-11-22T16:12:34.469Z,42.80
2018-11-22T16:15:03.198Z,42.70
2018-11-22T16:17:31.057Z,43.00
2018-11-22T16:19:58.879Z,43.00
2018-11-22T16:22:26.693Z,42.90
2018-11-22T16:24:54.518Z,42.80
2018-11-22T16:27:23.431Z,42.80
2018-11-22T16:29:51.257Z,42.80
2018-11-22T16:32:19.174Z,42.80
2018-11-22T16:34:47.977Z,43.00
2018-11-22T16:37:17.048Z,42.90
2018-11-22T16:39:45.486Z,42.80
2018-11-22T16:42:13.305Z,42.70
2018-11-22T16:44:42.008Z,42.90
2018-11-22T16:47:09.892Z,42.90
2018-11-22T16:49:38.768Z,43.10
2018-11-22T16:52:06.620Z,42.90
2018-11-22T16:54:35.329Z,43.00
2018-11-22T16:57:03.271Z,42.90
2018-11-22T16:59:32.163Z,43.00
2018-11-22T17:02:00.884Z,42.90
2018-11-22T17:04:29.583Z,43.00
2018-11-22T17:06:57.529Z,43.00
2018-11-22T17:09:26.443Z,43.00
2018-11-22T17:11:54.321Z,43.00
2018-11-22T17:14:22.185Z,42.80
2018-11-22T17:16:50.041Z,43.00
2018-11-22T17:19:19.064Z,43.20
2018-11-22T17:21:47.129Z,42.70
2018-11-22T17:24:16.797Z,42.90
2018-11-22T17:26:44.642Z,42.60
2018-11-22T17:29:13.823Z,42.70
2018-11-22T17:31:42.652Z,42.70
2018-11-22T17:34:10.579Z,42.40
2018-11-22T17:36:38.505Z,42.60
2018-11-22T17:39:08.989Z,42.50
2018-11-22T17:41:36.885Z,42.50
2018-11-22T17:44:04.760Z,42.60
2018-11-22T17:46:32.592Z,42.80
2018-11-22T17:49:00.441Z,42.80
2018-11-22T17:51:29.350Z,42.80
2018-11-22T17:53:58.147Z,42.70
2018-11-22T17:56:26.979Z,42.90
2018-11-22T17:58:55.870Z,42.80
2018-11-22T18:01:23.772Z,43.20
2018-11-22T18:03:52.523Z,43.10
2018-11-22T18:06:20.352Z,43.00
2018-11-22T18:08:48.168Z,42.80
2018-11-22T18:11:16.750Z,42.90
2018-11-22T18:13:46.523Z,42.90
2018-11-22T18:16:14.353Z,42.80
2018-11-22T18:18:43.238Z,43.00
2018-11-22T18:21:11.127Z,42.80
2018-11-22T18:23:38.962Z,43.00
2018-11-22T18:26:06.804Z,43.00
2018-11-22T18:28:34.645Z,42.80
2018-11-22T18:31:02.515Z,42.80
2018-11-22T18:33:30.353Z,42.90
2018-11-22T18:35:58.185Z,43.20
2018-11-22T18:38:26.004Z,43.00
2018-11-22T18:40:54.082Z,43.50
2018-11-22T18:43:21.971Z,42.80
2018-11-22T18:45:50.212Z,42.60
2018-11-22T18:48:18.994Z,42.60
2018-11-22T18:50:47.525Z,42.40
2018-11-22T18:53:16.782Z,42.50
2018-11-22T18:55:45.576Z,42.20
2018-11-22T18:58:14.081Z,42.50
2018-11-22T19:00:44.186Z,42.40
2018-11-22T19:03:15.503Z,42.30
2018-11-22T19:05:44.297Z,42.30
2018-11-22T19:08:12.127Z,42.50
2018-11-22T19:10:41.069Z,42.30
2018-11-22T19:13:09.736Z,42.80
2018-11-22T19:15:39.896Z,42.80
2018-11-22T19:18:08.370Z,42.20
2018-11-22T19:20:38.439Z,42.70
2018-11-22T19:23:07.222Z,42.90
2018-11-22T19:25:35.088Z,42.70
2018-11-22T19:28:03.531Z,42.90
2018-11-22T19:30:37.300Z,42.70
2018-11-22T19:33:04.325Z,42.70
2018-11-22T19:35:33.886Z,42.80
2018-11-22T19:38:02.798Z,42.80
2018-11-22T19:40:31.964Z,42.70
2018-11-22T19:43:01.414Z,42.80
2018-11-22T19:45:30.720Z,42.80
2018-11-22T19:47:58.651Z,42.90
2018-11-22T19:50:27.806Z,42.80
2018-11-22T19:52:56.532Z,42.80
2018-11-22T19:55:26.486Z,42.80
2018-11-22T19:57:57.257Z,42.90
2018-11-22T20:00:27.126Z,43.10
2018-11-22T20:02:56.393Z,43.10
2018-11-22T20:05:26.621Z,42.80
2018-11-22T20:07:57.042Z,43.10
2018-11-22T20:10:26.536Z,43.30
2018-11-22T20:12:54.906Z,43.20
2018-11-22T20:15:24.205Z,42.90
2018-11-22T20:17:53.358Z,43.00
2018-11-22T20:20:22.699Z,42.60
2018-11-22T20:22:53.283Z,42.40
2018-11-22T20:25:21.353Z,42.40
2018-11-22T20:27:50.212Z,42.30
2018-11-22T20:30:21.487Z,42.20
2018-11-22T20:32:49.834Z,42.20
2018-11-22T20:35:19.215Z,42.30
2018-11-22T20:37:48.175Z,42.30
2018-11-22T20:40:17.554Z,42.40
2018-11-22T20:42:47.118Z,42.50
2018-11-22T20:45:17.247Z,42.40
2018-11-22T20:47:46.940Z,42.50
2018-11-22T20:50:16.514Z,42.60
2018-11-22T20:52:44.402Z,42.70
2018-11-22T20:55:17.686Z,42.60
2018-11-22T20:57:48.418Z,42.40
2018-11-22T21:00:18.597Z,42.50
2018-11-22T21:02:47.552Z,42.40
2018-11-22T21:05:17.060Z,42.50
2018-11-22T21:07:45.875Z,42.80
2018-11-22T21:10:15.748Z,42.60
2018-11-22T21:12:43.638Z,42.70
2018-11-22T21:15:15.140Z,42.70
2018-11-22T21:17:43.392Z,42.70
2018-11-22T21:20:12.546Z,42.80
2018-11-22T21:22:40.391Z,42.80
2018-11-22T21:25:10.552Z,42.90
2018-11-22T21:27:39.419Z,42.80
2018-11-22T21:30:12.276Z,43.00
2018-11-22T21:32:48.771Z,43.00
2018-11-22T21:35:18.118Z,43.00
2018-11-22T21:37:46.577Z,43.00
2018-11-22T21:40:16.184Z,43.10
2018-11-22T21:42:44.072Z,42.80
2018-11-22T21:45:14.550Z,42.80
2018-11-22T21:47:43.393Z,42.90
2018-11-22T21:50:12.954Z,43.00
2018-11-22T21:52:40.790Z,42.90
2018-11-22T21:55:11.324Z,43.10
2018-11-22T21:57:40.165Z,42.80
2018-11-22T22:00:17.515Z,42.90
2018-11-22T22:02:52.767Z,43.10
2018-11-22T22:05:18.183Z,42.90
2018-11-22T22:07:46.754Z,43.10
2018-11-22T22:10:15.624Z,43.20
2018-11-22T22:12:44.466Z,43.00
2018-11-22T22:15:15.133Z,42.80
2018-11-22T22:17:43.753Z,42.90
2018-11-22T22:20:14.271Z,43.10
2018-11-22T22:22:43.114Z,43.10
2018-11-22T22:25:12.585Z,42.80
2018-11-22T22:27:41.143Z,42.60
2018-11-22T22:30:10.777Z,42.40
2018-11-22T22:32:38.760Z,42.40
2018-11-22T22:35:08.003Z,42.30
2018-11-22T22:37:36.099Z,42.20
2018-11-22T22:40:05.693Z,42.20
2018-11-22T22:42:33.529Z,42.40
2018-11-22T22:45:01.409Z,42.40
2018-11-22T22:47:29.256Z,42.30
2018-11-22T22:49:57.145Z,42.30
2018-11-22T22:52:25.813Z,42.40
2018-11-22T22:54:54.279Z,42.50
2018-11-22T22:57:22.146Z,42.60
2018-11-22T22:59:50.063Z,42.70
2018-11-22T23:02:18.968Z,42.70
2018-11-22T23:04:47.360Z,42.60
2018-11-22T23:07:16.251Z,42.50
2018-11-22T23:09:44.063Z,42.70
2018-11-22T23:12:12.764Z,42.70
2018-11-22T23:14:40.588Z,42.70
2018-11-22T23:17:09.372Z,42.90
2018-11-22T23:19:36.519Z,43.00
2018-11-22T23:22:04.491Z,42.80
2018-11-22T23:24:33.354Z,42.80
2018-11-22T23:27:01.238Z,42.70
2018-11-22T23:29:30.137Z,42.90
2018-11-22T23:31:58.029Z,43.00
2018-11-22T23:34:26.971Z,43.00
2018-11-22T23:36:54.831Z,43.00
2018-11-22T23:39:23.036Z,43.00
2018-11-22T23:41:51.135Z,43.10
2018-11-22T23:44:18.957Z,43.20
2018-11-22T23:46:47.409Z,43.10
2018-11-22T23:49:16.351Z,43.40
2018-11-22T23:51:44.339Z,43.20
2018-11-22T23:54:12.190Z,43.20
2018-11-22T23:56:40.000Z,43.20
2018-11-22T23:59:07.851Z,43.20
